Waldport, OR (97394)

5:03 PM PDT on July 26, 2017 (GMT -0700)
Alsea Highlands | | Change Station

Elev 200 ft 44.44 °N, 124.07 °W | Updated 50 seconds ago

Partly Cloudy
Partly Cloudy
62.5 °F
Feels Like 62.5 °F
N
1.0
Wind Variable Wind from East
Gusts 11.0 mph

Today
High -- | Low -- °F
--% Chance of Precip.
Yesterday
High -- | Low -- °F
Precip. -- in
Pressure 30.15 in
Visibility 10.0 miles
Clouds Mostly Cloudy 400 ft
Overcast 700 ft
Dew Point 57 °F
Humidity 83%
Rainfall 0.00 in
Snow Depth Not available.
5:57 AM 8:47 PM
Waxing Crescent, 16% visible
METAR KONP 262355Z AUTO 34012KT 10SM BKN004 OVC007 16/13 A3015 RMK AO2
Pressure 30.15 in
Visibility 10.0 miles
Clouds Mostly Cloudy 400 ft
Overcast 700 ft
Dew Point 57 °F
Humidity 83%
Rainfall 0.00 in
Snow Depth Not available.
5:57 AM 8:47 PM
Waxing Crescent, 16% visible
METAR KONP 262355Z AUTO 34012KT 10SM BKN004 OVC007 16/13 A3015 RMK AO2

Get Severe Weather Alerts

Thanks for signing up!

Be on the lookout for a verification email in your inbox.

You'll start receiving the daily forecast at 6 AM.

×

10-Day Weather Forecast

Almanac

Astronomy

Jul. 26, 2017 Rise Set
Actual Time
Civil Twilight
Nautical Twilight
Astronomical Twilight
Moon
Length of Visible Light
Length of Day
Tomorrow will be .
, % of the Moon is Illuminated

Today's Extremes

State Highs State Lows

Community

WunderPhotos

Category 6

Welcome to Category 6. This is the collective home for Weather Underground's featured writeups by Dr. Jeff Masters (right), Bob Henson (left), Chris Burt, and other regular contributors.

Nearby

Air Quality

  Air Quality AQ Index Pollutant
Not available.

Snow Depth

Station Depth Elevation

Earthquake Activity

City Distance Mag. Time & Date
Minimum magnitude displayed is 2.5.

Coastal Water Temperatures

Place Temperature

Stations

Nearby Weather Stations

Station Location Temp. Windchill Dew Point Humidity Wind Precip. Elev Updated Type
                   

Watches & Warnings

There are currently no watches in effect.